createdAt,value
2018-11-29T00:00:19.947Z,5.30
2018-11-29T00:02:48.698Z,6.40
2018-11-29T00:05:17.300Z,5.40
2018-11-29T00:07:45.767Z,5.87
2018-11-29T00:10:14.351Z,5.93
2018-11-29T00:12:42.909Z,5.47
2018-11-29T00:15:12.598Z,5.47
2018-11-29T00:17:41.143Z,4.43
2018-11-29T00:20:12.780Z,5.20
2018-11-29T00:22:41.891Z,4.97
2018-11-29T00:25:11.359Z,5.40
2018-11-29T00:27:40.151Z,4.70
2018-11-29T00:30:25.582Z,5.43
2018-11-29T00:32:55.857Z,4.60
2018-11-29T00:35:24.444Z,4.57
2018-11-29T00:37:52.967Z,4.80
2018-11-29T00:40:22.736Z,4.73
2018-11-29T00:42:51.486Z,5.10
2018-11-29T00:45:21.817Z,4.90
2018-11-29T00:47:50.620Z,4.37
2018-11-29T00:50:19.883Z,4.80
2018-11-29T00:52:49.333Z,4.60
2018-11-29T00:55:19.052Z,5.23
2018-11-29T00:57:47.646Z,4.40
2018-11-29T01:00:18.273Z,4.73
2018-11-29T01:02:46.791Z,4.20
2018-11-29T01:05:15.311Z,4.37
2018-11-29T01:07:43.823Z,4.67
2018-11-29T01:10:15.041Z,4.37
2018-11-29T01:12:43.942Z,3.87
2018-11-29T01:15:13.363Z,4.27
2018-11-29T01:17:42.055Z,4.20
2018-11-29T01:20:13.645Z,4.27
2018-11-29T01:22:42.176Z,4.67
2018-11-29T01:25:12.545Z,4.43
2018-11-29T01:27:41.739Z,4.57
2018-11-29T01:30:17.145Z,4.03
2018-11-29T01:32:45.737Z,3.93
2018-11-29T01:35:15.343Z,4.20
2018-11-29T01:37:43.943Z,3.93
2018-11-29T01:40:19.533Z,4.00
2018-11-29T01:42:54.117Z,4.13
2018-11-29T01:45:22.705Z,3.83
2018-11-29T01:47:51.284Z,3.20
2018-11-29T01:50:19.839Z,3.40
2018-11-29T01:52:48.368Z,3.70
2018-11-29T01:55:17.037Z,3.90
2018-11-29T01:57:45.580Z,3.63
2018-11-29T02:00:18.641Z,3.03
2018-11-29T02:02:48.271Z,3.23
2018-11-29T02:05:16.783Z,3.20
2018-11-29T02:07:45.343Z,3.77
2018-11-29T02:10:20.190Z,3.90
2018-11-29T02:12:48.813Z,3.70
2018-11-29T02:15:17.393Z,3.60
2018-11-29T02:17:45.903Z,3.50
2018-11-29T02:20:15.522Z,4.03
2018-11-29T02:22:44.354Z,3.43
2018-11-29T02:25:12.887Z,3.67
2018-11-29T02:27:41.465Z,3.47
2018-11-29T02:30:14.642Z,3.20
2018-11-29T02:32:43.188Z,3.20
2018-11-29T02:35:11.699Z,3.30
2018-11-29T02:37:40.231Z,3.23
2018-11-29T02:40:10.649Z,3.67
2018-11-29T02:42:39.223Z,3.53
2018-11-29T02:45:14.115Z,3.40
2018-11-29T02:47:43.196Z,3.77
2018-11-29T02:50:12.117Z,3.67
2018-11-29T02:52:40.631Z,3.60
2018-11-29T02:55:10.217Z,3.20
2018-11-29T02:57:38.849Z,2.97
2018-11-29T03:00:12.030Z,2.93
2018-11-29T03:02:40.537Z,2.60
2018-11-29T03:05:09.115Z,3.10
2018-11-29T03:07:37.880Z,3.27
2018-11-29T03:10:08.075Z,2.90
2018-11-29T03:12:36.744Z,2.93
2018-11-29T03:15:07.387Z,3.20
2018-11-29T03:17:35.873Z,3.50
2018-11-29T03:20:05.392Z,2.97
2018-11-29T03:22:33.872Z,2.87
2018-11-29T03:25:02.956Z,3.43
2018-11-29T03:27:31.547Z,3.07
2018-11-29T03:30:00.137Z,3.30
2018-11-29T03:32:28.705Z,3.10
2018-11-29T03:34:57.280Z,3.33
2018-11-29T03:37:25.890Z,2.97
2018-11-29T03:39:54.462Z,3.60
2018-11-29T03:42:23.047Z,3.27
2018-11-29T03:44:51.561Z,3.13
2018-11-29T03:47:20.038Z,3.30
2018-11-29T03:49:48.529Z,3.23
2018-11-29T03:52:17.010Z,3.57
2018-11-29T03:54:45.560Z,4.20
2018-11-29T03:57:14.137Z,3.60
2018-11-29T03:59:42.672Z,3.80
2018-11-29T04:02:11.153Z,4.10
2018-11-29T04:04:39.636Z,4.50
2018-11-29T04:07:08.139Z,3.43
2018-11-29T04:09:36.598Z,3.27
2018-11-29T04:12:05.456Z,3.60
2018-11-29T04:14:34.056Z,3.87
2018-11-29T04:17:02.640Z,3.60
2018-11-29T04:19:31.181Z,3.53
2018-11-29T04:21:59.818Z,3.63
2018-11-29T04:24:28.298Z,3.57
2018-11-29T04:26:56.864Z,3.87
2018-11-29T04:29:25.358Z,3.50
2018-11-29T04:31:53.844Z,3.90
2018-11-29T04:34:22.341Z,3.40
2018-11-29T04:36:50.821Z,3.40
2018-11-29T04:39:19.278Z,3.20
2018-11-29T04:41:47.872Z,3.37
2018-11-29T04:44:16.436Z,3.03
2018-11-29T04:46:49.588Z,3.30
2018-11-29T04:49:18.109Z,3.07
2018-11-29T04:51:46.711Z,3.00
2018-11-29T04:54:15.192Z,2.97
2018-11-29T04:56:44.811Z,3.20
2018-11-29T04:59:13.305Z,3.30
2018-11-29T05:01:41.807Z,3.17
2018-11-29T05:04:10.557Z,2.93
2018-11-29T05:06:39.069Z,3.67
2018-11-29T05:09:10.697Z,3.10
2018-11-29T05:11:39.279Z,3.23
2018-11-29T05:14:07.851Z,3.50
2018-11-29T05:16:36.450Z,3.40
2018-11-29T05:19:07.038Z,3.57
2018-11-29T05:21:35.525Z,3.50
2018-11-29T05:24:04.010Z,3.47
2018-11-29T05:26:32.533Z,3.40
2018-11-29T05:29:01.113Z,3.40
2018-11-29T05:31:29.649Z,3.97
2018-11-29T05:33:58.129Z,4.07
2018-11-29T05:36:26.759Z,3.53
2018-11-29T05:38:55.279Z,3.60
2018-11-29T05:41:23.925Z,3.80
2018-11-29T05:43:52.418Z,4.00
2018-11-29T05:46:21.111Z,4.07
2018-11-29T05:48:49.665Z,3.73
2018-11-29T05:51:18.263Z,4.00
2018-11-29T05:53:46.805Z,3.73
2018-11-29T05:56:15.328Z,4.50
2018-11-29T05:58:43.851Z,3.60
2018-11-29T06:01:16.146Z,3.90
2018-11-29T06:03:44.672Z,4.27
2018-11-29T06:06:13.213Z,3.77
2018-11-29T06:08:41.841Z,4.30
2018-11-29T06:11:10.364Z,3.80
2018-11-29T06:13:38.956Z,3.70
2018-11-29T06:16:07.508Z,3.93
2018-11-29T06:18:36.076Z,3.50
2018-11-29T06:21:05.002Z,4.00
2018-11-29T06:23:33.527Z,3.87
2018-11-29T06:26:02.032Z,3.63
2018-11-29T06:28:30.541Z,4.27
2018-11-29T06:30:59.101Z,4.13
2018-11-29T06:33:27.662Z,4.10
2018-11-29T06:35:56.266Z,4.23
2018-11-29T06:38:24.870Z,4.27
2018-11-29T06:40:53.339Z,4.13
2018-11-29T06:43:21.847Z,3.90
2018-11-29T06:45:50.397Z,4.10
2018-11-29T06:48:18.953Z,4.37
2018-11-29T06:50:47.426Z,4.30
2018-11-29T06:53:21.431Z,4.40
2018-11-29T06:55:50.058Z,3.97
2018-11-29T06:58:18.648Z,4.20
2018-11-29T07:00:47.292Z,3.93
2018-11-29T07:03:15.839Z,3.57
2018-11-29T07:05:44.342Z,4.40
2018-11-29T07:08:12.842Z,4.00
2018-11-29T07:10:41.337Z,4.50
2018-11-29T07:13:09.989Z,4.00
2018-11-29T07:15:38.651Z,4.57
2018-11-29T07:18:07.288Z,3.90
2018-11-29T07:20:35.810Z,4.50
2018-11-29T07:23:04.398Z,4.47
2018-11-29T07:25:32.884Z,4.10
2018-11-29T07:28:01.378Z,4.20
2018-11-29T07:30:29.932Z,4.37
2018-11-29T07:32:58.474Z,4.00
2018-11-29T07:35:27.091Z,4.20
2018-11-29T07:37:56.393Z,3.70
2018-11-29T07:40:24.897Z,4.37
2018-11-29T07:42:54.553Z,4.13
2018-11-29T07:45:23.181Z,3.87
2018-11-29T07:47:51.733Z,3.77
2018-11-29T07:50:22.430Z,3.90
2018-11-29T07:52:50.951Z,3.63
2018-11-29T07:55:20.487Z,4.23
2018-11-29T07:57:50.351Z,3.50
2018-11-29T08:00:18.989Z,3.90
2018-11-29T08:02:47.455Z,3.50
2018-11-29T08:05:16.599Z,3.70
2018-11-29T08:07:47.917Z,4.03
2018-11-29T08:10:17.245Z,3.97
2018-11-29T08:12:45.825Z,3.63
2018-11-29T08:15:15.543Z,3.67
2018-11-29T08:17:44.065Z,4.07
2018-11-29T08:20:16.599Z,4.30
2018-11-29T08:22:45.088Z,3.73
2018-11-29T08:25:13.750Z,3.73
2018-11-29T08:27:42.345Z,3.93
2018-11-29T08:30:12.912Z,3.80
2018-11-29T08:32:41.749Z,3.67
2018-11-29T08:35:11.479Z,4.03
2018-11-29T08:37:41.060Z,4.40
2018-11-29T08:40:12.413Z,4.23
2018-11-29T08:42:40.986Z,4.27
2018-11-29T08:45:10.816Z,4.20
2018-11-29T08:47:39.611Z,4.20
2018-11-29T08:50:12.487Z,4.43
2018-11-29T08:52:41.888Z,4.47
2018-11-29T08:55:15.493Z,4.23
2018-11-29T08:57:44.129Z,4.53
2018-11-29T09:00:17.753Z,4.73
2018-11-29T09:02:46.439Z,4.70
2018-11-29T09:05:15.378Z,4.27
2018-11-29T09:07:44.979Z,4.20
2018-11-29T09:10:15.800Z,4.73
2018-11-29T09:12:44.365Z,3.97
2018-11-29T09:15:14.868Z,3.93
2018-11-29T09:17:43.586Z,3.97
2018-11-29T09:20:15.117Z,3.80
2018-11-29T09:22:43.730Z,3.33
2018-11-29T09:25:14.362Z,3.40
2018-11-29T09:27:42.985Z,3.87
2018-11-29T09:30:13.489Z,3.40
2018-11-29T09:32:42.565Z,3.70
2018-11-29T09:35:11.264Z,2.97
2018-11-29T09:37:40.568Z,4.10
2018-11-29T09:40:12.176Z,3.30
2018-11-29T09:42:41.019Z,3.10
2018-11-29T09:45:12.826Z,3.37
2018-11-29T09:47:41.356Z,3.33
2018-11-29T09:50:11.391Z,3.40
2018-11-29T09:52:40.570Z,3.20
2018-11-29T09:55:11.267Z,3.33
2018-11-29T09:57:40.011Z,3.00
2018-11-29T10:00:28.234Z,3.37
2018-11-29T10:03:13.190Z,3.10
2018-11-29T10:05:43.192Z,3.30
2018-11-29T10:08:13.336Z,3.00
2018-11-29T10:10:41.841Z,3.13
2018-11-29T10:13:10.383Z,3.20
2018-11-29T10:15:39.084Z,3.13
2018-11-29T10:18:08.522Z,3.00
2018-11-29T10:20:37.086Z,2.70
2018-11-29T10:23:06.200Z,3.20
2018-11-29T10:25:36.503Z,2.73
2018-11-29T10:28:06.123Z,2.57
2018-11-29T10:30:40.960Z,3.17
2018-11-29T10:33:09.491Z,3.23
2018-11-29T10:35:37.987Z,2.70
2018-11-29T10:38:06.606Z,3.17
2018-11-29T10:40:35.160Z,3.20
2018-11-29T10:43:03.689Z,2.97
2018-11-29T10:45:32.201Z,2.70
2018-11-29T10:48:00.878Z,2.87
2018-11-29T10:50:29.411Z,2.63
2018-11-29T10:52:57.908Z,2.90
2018-11-29T10:55:26.752Z,2.43
2018-11-29T10:57:55.361Z,2.43
2018-11-29T11:00:30.861Z,2.37
2018-11-29T11:03:08.588Z,2.50
2018-11-29T11:05:37.564Z,2.67
2018-11-29T11:08:08.519Z,2.40
2018-11-29T11:10:36.614Z,2.77
2018-11-29T11:13:05.603Z,2.23
2018-11-29T11:15:34.130Z,2.20
2018-11-29T11:18:02.716Z,2.40
2018-11-29T11:20:31.226Z,2.50
2018-11-29T11:22:59.740Z,2.60
2018-11-29T11:25:28.271Z,2.73
2018-11-29T11:27:56.764Z,2.67
2018-11-29T11:30:25.267Z,2.73
2018-11-29T11:32:53.838Z,2.83
2018-11-29T11:35:22.365Z,2.33
2018-11-29T11:37:50.902Z,2.70
2018-11-29T11:40:19.413Z,2.50
2018-11-29T11:42:48.066Z,2.50
2018-11-29T11:45:17.640Z,2.40
2018-11-29T11:47:46.440Z,2.40
2018-11-29T11:50:21.268Z,2.70
2018-11-29T11:52:50.035Z,2.57
2018-11-29T11:55:19.267Z,3.13
2018-11-29T11:57:48.928Z,2.63
2018-11-29T12:00:25.971Z,2.70
2018-11-29T12:03:14.460Z,3.00
2018-11-29T12:05:43.020Z,3.03
2018-11-29T12:08:11.595Z,3.13
2018-11-29T12:10:41.458Z,2.73
2018-11-29T12:13:10.046Z,2.93
2018-11-29T12:15:38.682Z,2.97
2018-11-29T12:18:09.697Z,3.13
2018-11-29T12:20:38.250Z,3.00
2018-11-29T12:23:07.562Z,2.60
2018-11-29T12:25:36.124Z,2.73
2018-11-29T12:28:04.694Z,2.90
2018-11-29T12:30:36.055Z,2.80
2018-11-29T12:33:06.123Z,2.80
2018-11-29T12:35:34.663Z,2.60
2018-11-29T12:38:03.180Z,2.50
2018-11-29T12:40:31.745Z,2.53
2018-11-29T12:43:00.254Z,2.70
2018-11-29T12:45:28.937Z,2.90
2018-11-29T12:47:57.485Z,2.70
2018-11-29T12:50:26.719Z,2.70
2018-11-29T12:52:55.383Z,2.90
2018-11-29T12:55:25.183Z,2.50
2018-11-29T12:58:05.517Z,2.40
2018-11-29T13:00:23.669Z,3.00
2018-11-29T13:02:56.138Z,2.50
2018-11-29T13:05:25.001Z,2.53
2018-11-29T13:07:53.567Z,2.70
2018-11-29T13:10:23.759Z,2.43
2018-11-29T13:12:52.564Z,2.20
2018-11-29T13:15:23.616Z,2.30
2018-11-29T13:17:52.196Z,2.67
2018-11-29T13:20:20.734Z,2.50
2018-11-29T13:22:49.266Z,2.63
2018-11-29T13:25:19.015Z,2.57
2018-11-29T13:27:47.602Z,2.43
2018-11-29T13:30:17.415Z,2.50
2018-11-29T13:32:46.305Z,2.67
2018-11-29T13:35:17.737Z,2.20
2018-11-29T13:38:18.193Z,2.50
2018-11-29T13:40:48.859Z,2.60
2018-11-29T13:43:17.363Z,2.60
2018-11-29T13:45:46.073Z,2.60
2018-11-29T13:48:14.610Z,2.43
2018-11-29T13:50:43.206Z,2.63
2018-11-29T13:53:11.690Z,2.40
2018-11-29T13:55:40.481Z,2.67
2018-11-29T13:58:08.837Z,2.70
2018-11-29T14:00:37.452Z,2.67
2018-11-29T14:03:09.398Z,2.30
2018-11-29T14:05:38.058Z,2.47
2018-11-29T14:08:07.766Z,2.57
2018-11-29T14:10:36.578Z,2.63
2018-11-29T14:13:06.464Z,2.60
2018-11-29T14:15:35.206Z,2.57
2018-11-29T14:18:03.830Z,2.80
2018-11-29T14:20:35.452Z,2.70
2018-11-29T14:23:01.031Z,2.30
2018-11-29T14:25:29.539Z,2.90
2018-11-29T14:27:58.331Z,2.20
2018-11-29T14:30:28.084Z,2.20
2018-11-29T14:32:58.626Z,2.80
2018-11-29T14:35:27.192Z,2.40
2018-11-29T14:37:55.937Z,2.43
2018-11-29T14:40:26.544Z,2.83
2018-11-29T14:42:55.173Z,2.50
2018-11-29T14:45:24.953Z,2.60
2018-11-29T14:47:53.863Z,2.50
2018-11-29T14:50:27.748Z,2.80
2018-11-29T14:52:56.356Z,2.60
2018-11-29T14:55:24.934Z,3.03
2018-11-29T14:57:54.080Z,2.63
2018-11-29T15:00:22.586Z,2.80
2018-11-29T15:02:51.080Z,3.10
2018-11-29T15:05:21.618Z,2.70
2018-11-29T15:07:50.160Z,2.50
2018-11-29T15:10:18.679Z,3.00
2018-11-29T15:12:47.195Z,3.00
2018-11-29T15:15:15.775Z,2.73
2018-11-29T15:17:45.014Z,2.87
2018-11-29T15:20:18.187Z,2.90
2018-11-29T15:22:47.334Z,3.00
2018-11-29T15:25:15.433Z,2.80
2018-11-29T15:27:43.987Z,3.13
2018-11-29T15:30:14.928Z,3.23
2018-11-29T15:32:43.541Z,2.80
2018-11-29T15:35:12.145Z,2.93
2018-11-29T15:37:40.779Z,2.77
2018-11-29T15:40:10.905Z,2.93
2018-11-29T15:42:39.477Z,3.20
2018-11-29T15:45:10.741Z,2.90
2018-11-29T15:47:39.307Z,3.13
2018-11-29T15:50:10.702Z,2.80
2018-11-29T15:52:39.252Z,2.90
2018-11-29T15:55:10.125Z,2.77
2018-11-29T15:57:38.683Z,2.80
2018-11-29T16:00:17.216Z,2.90
2018-11-29T16:02:46.466Z,3.17
2018-11-29T16:05:15.071Z,3.00
2018-11-29T16:07:43.726Z,2.67
2018-11-29T16:10:14.310Z,2.90
2018-11-29T16:12:43.302Z,3.17
2018-11-29T16:15:14.171Z,3.10
2018-11-29T16:17:42.984Z,2.80
2018-11-29T16:20:31.579Z,3.27
2018-11-29T16:23:00.515Z,3.10
2018-11-29T16:25:29.050Z,3.20
2018-11-29T16:27:57.579Z,3.10
2018-11-29T16:30:48.245Z,3.20
2018-11-29T16:33:33.477Z,2.90
2018-11-29T16:36:02.409Z,3.30
2018-11-29T16:38:30.966Z,3.20
2018-11-29T16:40:59.618Z,3.00
2018-11-29T16:43:28.327Z,3.20
2018-11-29T16:45:57.414Z,3.10
2018-11-29T16:48:25.949Z,3.87
2018-11-29T16:50:54.546Z,3.87
2018-11-29T16:53:23.723Z,3.40
2018-11-29T16:55:52.814Z,3.23
2018-11-29T16:58:24.287Z,3.10
2018-11-29T17:00:52.850Z,3.40
2018-11-29T17:03:21.400Z,3.47
2018-11-29T17:05:50.372Z,3.10
2018-11-29T17:08:19.069Z,3.00
2018-11-29T17:10:47.649Z,3.23
2018-11-29T17:13:17.724Z,3.30
2018-11-29T17:15:46.275Z,3.20
2018-11-29T17:18:14.835Z,3.03
2018-11-29T17:20:43.380Z,3.17
2018-11-29T17:23:12.581Z,3.13
2018-11-29T17:25:41.764Z,3.10
2018-11-29T17:28:10.339Z,3.00
2018-11-29T17:30:39.477Z,2.90
2018-11-29T17:33:09.294Z,2.93
2018-11-29T17:35:37.899Z,3.10
2018-11-29T17:38:06.856Z,3.23
2018-11-29T17:40:36.569Z,3.00
2018-11-29T17:43:05.592Z,3.80
2018-11-29T17:45:34.268Z,3.30
2018-11-29T17:48:04.920Z,3.00
2018-11-29T17:50:37.029Z,3.20
2018-11-29T17:53:06.267Z,3.13
2018-11-29T17:55:34.923Z,3.30
2018-11-29T17:58:05.568Z,3.40
2018-11-29T18:00:34.735Z,2.83
2018-11-29T18:03:03.271Z,3.27
2018-11-29T18:05:31.861Z,3.33
2018-11-29T18:08:00.535Z,3.20
2018-11-29T18:10:32.695Z,3.43
2018-11-29T18:13:11.017Z,3.20
2018-11-29T18:15:39.482Z,3.50
2018-11-29T18:18:08.068Z,3.30
2018-11-29T18:20:37.468Z,3.13
2018-11-29T18:23:06.790Z,3.70
2018-11-29T18:25:35.415Z,3.07
2018-11-29T18:28:04.032Z,3.50
2018-11-29T18:30:32.701Z,3.30
2018-11-29T18:33:01.311Z,3.07
2018-11-29T18:35:29.853Z,3.23
2018-11-29T18:37:58.489Z,3.23
2018-11-29T18:40:26.999Z,3.70
2018-11-29T18:42:57.597Z,4.00
2018-11-29T18:45:26.333Z,3.70
2018-11-29T18:47:55.453Z,3.87
2018-11-29T18:50:25.328Z,3.67
2018-11-29T18:52:54.322Z,3.47
2018-11-29T18:55:24.117Z,3.80
2018-11-29T18:57:53.089Z,4.00
2018-11-29T19:00:34.570Z,3.43
2018-11-29T19:03:03.733Z,3.40
2018-11-29T19:05:32.376Z,3.90
2018-11-29T19:08:01.143Z,3.73
2018-11-29T19:10:29.734Z,3.20
2018-11-29T19:13:02.726Z,3.33
2018-11-29T19:15:31.421Z,3.23
2018-11-29T19:17:59.923Z,3.50
2018-11-29T19:20:29.384Z,3.40
2018-11-29T19:22:57.970Z,3.50
2018-11-29T19:25:26.500Z,3.60
2018-11-29T19:27:55.163Z,3.10
2018-11-29T19:30:26.643Z,3.23
2018-11-29T19:33:01.639Z,3.10
2018-11-29T19:35:30.208Z,3.20
2018-11-29T19:37:58.813Z,3.33
2018-11-29T19:40:27.442Z,3.13
2018-11-29T19:42:55.992Z,3.30
2018-11-29T19:45:24.570Z,3.33
2018-11-29T19:47:53.088Z,3.20
2018-11-29T19:50:21.724Z,3.47
2018-11-29T19:52:54.924Z,3.30
2018-11-29T19:55:25.774Z,3.50
2018-11-29T19:57:54.365Z,3.37
2018-11-29T20:00:22.976Z,3.40
2018-11-29T20:02:53.837Z,3.60
2018-11-29T20:05:22.983Z,3.47
2018-11-29T20:07:51.498Z,3.83
2018-11-29T20:10:20.214Z,3.70
2018-11-29T20:12:54.636Z,3.87
2018-11-29T20:15:23.191Z,3.77
2018-11-29T20:17:51.779Z,3.50
2018-11-29T20:20:20.294Z,3.80
2018-11-29T20:22:48.977Z,3.70
2018-11-29T20:25:18.862Z,3.30
2018-11-29T20:27:47.478Z,3.30
2018-11-29T20:30:23.744Z,3.27
2018-11-29T20:32:53.480Z,3.50
2018-11-29T20:35:22.340Z,3.43
2018-11-29T20:37:51.956Z,3.77
2018-11-29T20:40:26.346Z,3.50
2018-11-29T20:42:57.202Z,3.67
2018-11-29T20:45:35.005Z,3.93
2018-11-29T20:48:09.977Z,3.90
2018-11-29T20:50:39.052Z,3.70
2018-11-29T20:53:08.543Z,3.43
2018-11-29T20:55:37.274Z,3.33
2018-11-29T20:58:06.718Z,3.53
2018-11-29T21:00:35.241Z,3.00
2018-11-29T21:03:03.839Z,3.70
2018-11-29T21:05:32.589Z,3.50
2018-11-29T21:08:02.233Z,3.30
2018-11-29T21:10:30.802Z,3.33
2018-11-29T21:13:05.497Z,3.67
2018-11-29T21:15:35.637Z,3.47
2018-11-29T21:18:04.448Z,3.10
2018-11-29T21:20:33.619Z,3.70
2018-11-29T21:23:02.411Z,3.10
2018-11-29T21:25:31.099Z,3.50
2018-11-29T21:27:59.599Z,3.43
2018-11-29T21:30:28.172Z,3.80
2018-11-29T21:32:57.277Z,3.47
2018-11-29T21:35:26.615Z,3.03
2018-11-29T21:37:55.248Z,3.47
2018-11-29T21:40:31.366Z,3.53
2018-11-29T21:42:59.941Z,3.77
2018-11-29T21:45:28.529Z,3.03
2018-11-29T21:47:57.017Z,3.33
2018-11-29T21:50:25.668Z,3.47
2018-11-29T21:52:54.312Z,3.60
2018-11-29T21:55:22.914Z,3.90
2018-11-29T21:57:51.502Z,3.33
2018-11-29T22:00:21.417Z,3.70
2018-11-29T22:02:56.613Z,3.50
2018-11-29T22:05:25.271Z,3.80
2018-11-29T22:07:54.900Z,4.20
2018-11-29T22:10:23.422Z,3.60
2018-11-29T22:12:52.218Z,3.80
2018-11-29T22:15:20.756Z,3.50
2018-11-29T22:18:23.693Z,3.90
2018-11-29T22:20:55.511Z,3.30
2018-11-29T22:23:24.017Z,3.67
2018-11-29T22:25:53.325Z,3.67
2018-11-29T22:28:21.920Z,3.50
2018-11-29T22:30:50.417Z,3.63
2018-11-29T22:33:18.895Z,3.80
2018-11-29T22:35:47.569Z,3.30
2018-11-29T22:38:16.083Z,3.60
2018-11-29T22:40:44.658Z,3.53
2018-11-29T22:43:13.333Z,3.77
2018-11-29T22:45:41.856Z,3.43
2018-11-29T22:48:10.491Z,3.23
2018-11-29T22:50:39.031Z,3.13
2018-11-29T22:53:08.177Z,3.43
2018-11-29T22:55:36.691Z,3.43
2018-11-29T22:58:05.543Z,3.90
2018-11-29T23:00:39.178Z,3.67
2018-11-29T23:03:07.939Z,3.67
2018-11-29T23:05:36.407Z,3.70
2018-11-29T23:08:05.187Z,3.27
2018-11-29T23:10:33.693Z,3.60
2018-11-29T23:13:02.322Z,3.57
2018-11-29T23:15:30.974Z,3.57
2018-11-29T23:17:59.458Z,4.00
2018-11-29T23:20:27.980Z,3.53
2018-11-29T23:22:56.514Z,3.73
2018-11-29T23:25:25.505Z,3.70
2018-11-29T23:27:54.013Z,3.77
2018-11-29T23:30:22.552Z,3.57
2018-11-29T23:32:51.025Z,3.93
2018-11-29T23:35:19.501Z,3.77
2018-11-29T23:37:48.130Z,3.53
2018-11-29T23:40:17.554Z,3.50
2018-11-29T23:42:46.613Z,3.70
2018-11-29T23:45:15.365Z,4.13
2018-11-29T23:47:43.976Z,4.03
2018-11-29T23:50:14.726Z,3.97
2018-11-29T23:52:43.520Z,3.83
2018-11-29T23:55:21.002Z,3.50
2018-11-29T23:57:49.699Z,3.27
